Time;durP1;ratioP1;P1;durP2;ratioP2;P2;SDS_P1;SDS_P2;PMS_P1;PMS_P2;Temp;Humidity;BMP_temperature;BMP_pressure;BME280_temperature;BME280_humidity;BME280_pressure;Samples;Min_cycle;Max_cycle;Signal;HPM_P1;HPM_P2
2022/08/12 00:43:18;;;;;;;4.20;2.60;;;;;;;;;;110192;1248;33986;-37
2022/08/12 00:48:45;;;;;;;4.00;2.50;;;;;;;;;;110157;1255;34045;-37
2022/08/12 00:51:19;;;;;;;4.20;2.60;;;;;;;;;;110164;1249;33315;-37
2022/08/12 00:53:54;;;;;;;4.20;2.70;;;;;;;;;;110170;1250;34158;-37
2022/08/12 00:56:28;;;;;;;3.90;2.60;;;;;;;;;;110189;1248;34099;-37
2022/08/12 00:59:01;;;;;;;4.00;2.60;;;;;;;;;;110196;1255;35670;-37
2022/08/12 01:01:33;;;;;;;4.20;2.50;;;;;;;;;;110184;1249;33732;-36
2022/08/12 01:12:43;;;;;;;4.30;2.50;;;;;;;;;;110182;1248;33833;-35
2022/08/12 01:15:17;;;;;;;4.10;2.60;;;;;;;;;;110164;1249;33506;-34
2022/08/12 01:17:48;;;;;;;4.30;2.80;;;;;;;;;;110159;1248;33905;-34
2022/08/12 01:20:26;;;;;;;4.30;2.50;;;;;;;;;;110212;1255;33281;-35
2022/08/12 01:23:19;;;;;;;4.20;2.40;;;;;;;;;;110202;1248;33672;-35
2022/08/12 01:25:54;;;;;;;4.50;3.00;;;;;;;;;;110063;1255;33679;-36
2022/08/12 01:28:28;;;;;;;3.90;2.70;;;;;;;;;;110155;1254;33967;-37
2022/08/12 01:31:01;;;;;;;4.30;2.60;;;;;;;;;;109154;1255;1335606;-36
2022/08/12 01:33:37;;;;;;;4.80;2.80;;;;;;;;;;110176;1248;32152;-36
2022/08/12 01:36:13;;;;;;;4.80;2.80;;;;;;;;;;110161;1248;32672;-37
2022/08/12 01:38:48;;;;;;;4.60;2.80;;;;;;;;;;110141;1250;34237;-37
2022/08/12 01:41:24;;;;;;;4.40;2.60;;;;;;;;;;110213;1255;33933;-37
2022/08/12 01:43:59;;;;;;;4.40;2.50;;;;;;;;;;110170;1248;34071;-37
2022/08/12 01:46:44;;;;;;;5.20;2.90;;;;;;;;;;110216;1248;32979;-37
2022/08/12 01:49:47;;;;;;;4.10;2.60;;;;;;;;;;110183;1248;34205;-35
2022/08/12 01:52:31;;;;;;;4.20;2.90;;;;;;;;;;110201;1255;34437;-36
2022/08/12 01:55:04;;;;;;;4.40;2.80;;;;;;;;;;110184;1249;33290;-36
2022/08/12 01:57:43;;;;;;;5.80;2.90;;;;;;;;;;110171;1248;34213;-36
2022/08/12 02:00:17;;;;;;;4.40;2.80;;;;;;;;;;110154;1248;33472;-36
2022/08/12 02:03:02;;;;;;;5.20;3.10;;;;;;;;;;110126;1255;31837;-36
2022/08/12 02:11:30;;;;;;;4.90;3.00;;;;;;;;;;110165;1255;35617;-37
2022/08/12 02:14:31;;;;;;;5.20;3.20;;;;;;;;;;110149;1249;33290;-35
2022/08/12 02:17:20;;;;;;;4.80;3.50;;;;;;;;;;110169;1248;33789;-36
2022/08/12 02:20:03;;;;;;;4.70;3.20;;;;;;;;;;110144;1250;32113;-37
2022/08/12 02:22:39;;;;;;;5.40;3.20;;;;;;;;;;110172;1248;33502;-37
2022/08/12 02:25:14;;;;;;;5.00;3.10;;;;;;;;;;110169;1250;33268;-37
2022/08/12 02:27:47;;;;;;;5.50;3.00;;;;;;;;;;110197;1248;33545;-37
2022/08/12 02:30:20;;;;;;;5.20;2.90;;;;;;;;;;110132;1248;33821;-37
2022/08/12 02:32:54;;;;;;;5.40;3.10;;;;;;;;;;110118;1248;34232;-37
2022/08/12 02:35:27;;;;;;;4.90;3.00;;;;;;;;;;110162;1249;33710;-37
2022/08/12 02:38:00;;;;;;;4.80;3.10;;;;;;;;;;110200;1248;34212;-35
2022/08/12 02:40:36;;;;;;;5.50;3.10;;;;;;;;;;110214;1248;33981;-36
2022/08/12 02:43:17;;;;;;;5.50;3.40;;;;;;;;;;110158;1255;33953;-37
2022/08/12 02:45:56;;;;;;;4.70;3.10;;;;;;;;;;110167;1250;33710;-37
2022/08/12 02:48:31;;;;;;;5.50;3.90;;;;;;;;;;110151;1255;35638;-37
2022/08/12 02:51:08;;;;;;;5.80;3.30;;;;;;;;;;110182;1248;34611;-37
2022/08/12 02:53:39;;;;;;;7.00;3.70;;;;;;;;;;110159;1250;34108;-37
2022/08/12 02:56:11;;;;;;;6.50;3.90;;;;;;;;;;110117;1256;35719;-37
2022/08/12 02:58:42;;;;;;;6.20;3.40;;;;;;;;;;110163;1249;33761;-36
2022/08/12 03:01:13;;;;;;;5.20;3.70;;;;;;;;;;110165;1247;35743;-36
2022/08/12 03:03:51;;;;;;;7.20;3.90;;;;;;;;;;110162;1255;32220;-36
2022/08/12 03:06:29;;;;;;;6.60;3.80;;;;;;;;;;110183;1249;34435;-36
2022/08/12 03:09:02;;;;;;;6.70;3.70;;;;;;;;;;110153;1255;33544;-37
2022/08/12 03:11:42;;;;;;;6.30;3.60;;;;;;;;;;110165;1248;33833;-35
2022/08/12 03:14:17;;;;;;;6.30;3.30;;;;;;;;;;110183;1248;33817;-36
2022/08/12 03:16:56;;;;;;;5.90;3.40;;;;;;;;;;110162;1255;34460;-36
2022/08/12 03:19:29;;;;;;;5.70;3.70;;;;;;;;;;110196;1255;34430;-37
2022/08/12 03:22:11;;;;;;;6.80;4.30;;;;;;;;;;110163;1255;33734;-37
2022/08/12 03:24:44;;;;;;;7.20;3.80;;;;;;;;;;110135;1250;33408;-35
2022/08/12 03:27:19;;;;;;;6.80;3.80;;;;;;;;;;110224;1248;33685;-35
2022/08/12 03:29:51;;;;;;;6.60;3.80;;;;;;;;;;110169;1250;34102;-36
2022/08/12 03:32:23;;;;;;;5.90;3.40;;;;;;;;;;110128;1249;33881;-36
2022/08/12 03:35:00;;;;;;;6.70;4.20;;;;;;;;;;110162;1249;33976;-36
2022/08/12 03:37:33;;;;;;;6.60;3.90;;;;;;;;;;110145;1255;33462;-35
2022/08/12 03:41:32;;;;;;;7.40;3.90;;;;;;;;;;110167;1248;33985;-36
2022/08/12 04:02:54;;;;;;;6.90;3.90;;;;;;;;;;110210;1255;33281;-36
2022/08/12 04:05:26;;;;;;;6.20;4.00;;;;;;;;;;110272;1248;33790;-36
2022/08/12 04:08:03;;;;;;;6.50;4.20;;;;;;;;;;110173;1255;34050;-35
2022/08/12 04:13:24;;;;;;;6.60;3.80;;;;;;;;;;110168;1249;32526;-37
2022/08/12 04:15:57;;;;;;;7.20;4.00;;;;;;;;;;110226;1248;32660;-37
2022/08/12 04:18:28;;;;;;;6.70;4.40;;;;;;;;;;110144;1255;33765;-37
2022/08/12 04:21:01;;;;;;;6.90;4.20;;;;;;;;;;110194;1250;33783;-37
2022/08/12 04:23:33;;;;;;;6.70;3.80;;;;;;;;;;110196;1255;35611;-36
2022/08/12 04:26:08;;;;;;;6.60;3.70;;;;;;;;;;110195;1249;33279;-36
2022/08/12 04:28:41;;;;;;;6.00;3.60;;;;;;;;;;110172;1248;33727;-36
2022/08/12 04:31:11;;;;;;;6.70;3.70;;;;;;;;;;110174;1248;33750;-36
2022/08/12 04:33:43;;;;;;;6.60;3.60;;;;;;;;;;110175;1249;33985;-36
2022/08/12 04:36:14;;;;;;;6.70;3.90;;;;;;;;;;110186;1248;34151;-36
2022/08/12 04:38:45;;;;;;;6.10;3.40;;;;;;;;;;110191;1250;33722;-36
2022/08/12 04:41:22;;;;;;;5.80;3.40;;;;;;;;;;110172;1255;34177;-37
2022/08/12 04:43:54;;;;;;;6.70;3.70;;;;;;;;;;110186;1248;34226;-36
2022/08/12 04:46:26;;;;;;;5.50;3.30;;;;;;;;;;110167;1255;34213;-36
2022/08/12 04:48:57;;;;;;;5.70;3.50;;;;;;;;;;110137;1248;34314;-36
2022/08/12 04:51:33;;;;;;;5.50;3.50;;;;;;;;;;110186;1255;35664;-36
2022/08/12 04:54:05;;;;;;;5.40;3.30;;;;;;;;;;110166;1255;35707;-36
2022/08/12 04:56:36;;;;;;;5.50;3.40;;;;;;;;;;110215;1248;32580;-36
2022/08/12 04:59:07;;;;;;;6.90;4.10;;;;;;;;;;110118;1249;34706;-36
2022/08/12 05:01:39;;;;;;;6.00;3.40;;;;;;;;;;110198;1255;34194;-36
2022/08/12 05:04:17;;;;;;;7.10;3.50;;;;;;;;;;110193;1255;33315;-36
2022/08/12 05:06:48;;;;;;;7.70;3.30;;;;;;;;;;110172;1255;34133;-36
2022/08/12 05:09:22;;;;;;;6.30;3.40;;;;;;;;;;110183;1248;33439;-36
2022/08/12 05:11:56;;;;;;;6.10;3.50;;;;;;;;;;110185;1249;34110;-36
2022/08/12 05:14:27;;;;;;;6.50;3.40;;;;;;;;;;110187;1249;33513;-36
2022/08/12 05:16:59;;;;;;;6.50;3.80;;;;;;;;;;110194;1248;33681;-36
2022/08/12 05:19:32;;;;;;;7.30;3.90;;;;;;;;;;110201;1255;35797;-36
2022/08/12 05:22:03;;;;;;;6.20;3.70;;;;;;;;;;110188;1255;33980;-36
2022/08/12 05:24:35;;;;;;;6.20;3.60;;;;;;;;;;110159;1255;34430;-37
2022/08/12 05:27:06;;;;;;;8.10;3.70;;;;;;;;;;110163;1255;33526;-37
2022/08/12 05:29:38;;;;;;;7.10;3.60;;;;;;;;;;110187;1249;35333;-36
2022/08/12 05:32:10;;;;;;;5.10;3.40;;;;;;;;;;110236;1255;34334;-36
2022/08/12 05:34:41;;;;;;;5.70;3.20;;;;;;;;;;110202;1249;33891;-36
2022/08/12 05:37:13;;;;;;;5.40;3.30;;;;;;;;;;110191;1254;34440;-36
2022/08/12 05:39:44;;;;;;;5.70;3.50;;;;;;;;;;110181;1255;33945;-35
2022/08/12 05:42:17;;;;;;;5.80;3.50;;;;;;;;;;110207;1249;33306;-36
2022/08/12 05:44:49;;;;;;;5.20;3.40;;;;;;;;;;110156;1255;35519;-36
2022/08/12 05:47:19;;;;;;;6.90;3.30;;;;;;;;;;110158;1249;33700;-36
2022/08/12 05:49:50;;;;;;;5.70;3.40;;;;;;;;;;110195;1248;32875;-36
2022/08/12 05:52:26;;;;;;;5.00;3.60;;;;;;;;;;110176;1248;34212;-36
2022/08/12 05:54:57;;;;;;;7.50;3.70;;;;;;;;;;110142;1256;33702;-36
2022/08/12 05:57:31;;;;;;;5.10;3.50;;;;;;;;;;110160;1255;33831;-36
2022/08/12 06:00:03;;;;;;;5.50;3.30;;;;;;;;;;110210;1250;34107;-35
2022/08/12 06:02:34;;;;;;;5.90;3.40;;;;;;;;;;110212;1255;35650;-35
2022/08/12 06:05:11;;;;;;;6.40;3.30;;;;;;;;;;110174;1256;35441;-35
2022/08/12 06:07:45;;;;;;;5.30;3.60;;;;;;;;;;110198;1254;33826;-36
2022/08/12 06:10:14;;;;;;;;;;;;;;;;;;110254;1255;34497;-36
2022/08/12 06:12:48;;;;;;;6.00;3.50;;;;;;;;;;110187;1255;35510;-36
2022/08/12 06:15:20;;;;;;;5.50;3.20;;;;;;;;;;110205;1255;33335;-36
2022/08/12 06:17:54;;;;;;;7.20;3.40;;;;;;;;;;110205;1255;33513;-36
2022/08/12 06:20:29;;;;;;;4.90;3.20;;;;;;;;;;110183;1248;33033;-36
2022/08/12 06:23:00;;;;;;;6.20;3.50;;;;;;;;;;110184;1255;33999;-37
2022/08/12 06:25:33;;;;;;;5.70;3.60;;;;;;;;;;110178;1255;32778;-36
2022/08/12 06:28:13;;;;;;;6.10;3.90;;;;;;;;;;110256;1250;32238;-36
2022/08/12 06:30:47;;;;;;;5.10;3.50;;;;;;;;;;110148;1252;34081;-36
2022/08/12 06:33:21;;;;;;;6.10;3.40;;;;;;;;;;110180;1255;31984;-37
2022/08/12 06:35:56;;;;;;;5.80;3.50;;;;;;;;;;110154;1248;33914;-36
2022/08/12 06:38:29;;;;;;;6.70;3.00;;;;;;;;;;110171;1255;33623;-36
2022/08/12 06:43:52;;;;;;;4.10;2.80;;;;;;;;;;110173;1256;33989;-36
2022/08/12 06:46:24;;;;;;;5.00;3.60;;;;;;;;;;110202;1254;34584;-36
2022/08/12 06:48:57;;;;;;;5.10;3.50;;;;;;;;;;110174;1254;33936;-36
2022/08/12 06:51:32;;;;;;;5.80;3.30;;;;;;;;;;110219;1255;35669;-36
2022/08/12 06:54:09;;;;;;;5.70;3.30;;;;;;;;;;110206;1249;33973;-36
2022/08/12 06:56:40;;;;;;;6.20;3.20;;;;;;;;;;110217;1248;34045;-36
2022/08/12 06:59:13;;;;;;;5.20;3.10;;;;;;;;;;110175;1252;33694;-36
2022/08/12 07:01:44;;;;;;;6.60;3.50;;;;;;;;;;110163;1255;35628;-36
2022/08/12 07:04:17;;;;;;;6.90;3.50;;;;;;;;;;110194;1255;33965;-37
2022/08/12 07:06:48;;;;;;;5.40;3.40;;;;;;;;;;110183;1250;33426;-36
2022/08/12 07:09:20;;;;;;;6.20;3.50;;;;;;;;;;110230;1248;34097;-36
2022/08/12 07:11:50;;;;;;;5.80;3.70;;;;;;;;;;110199;1256;33284;-37
2022/08/12 07:14:21;;;;;;;7.10;3.90;;;;;;;;;;110207;1253;33672;-37
2022/08/12 07:16:55;;;;;;;4.40;3.20;;;;;;;;;;110217;1256;35480;-37
2022/08/12 07:19:26;;;;;;;5.30;3.20;;;;;;;;;;110220;1248;34039;-36
2022/08/12 07:22:00;;;;;;;4.70;3.20;;;;;;;;;;110172;1250;34092;-37
2022/08/12 07:24:30;;;;;;;5.90;3.50;;;;;;;;;;110195;1248;33703;-36
2022/08/12 07:27:01;;;;;;;5.20;3.40;;;;;;;;;;110157;1256;35271;-36
2022/08/12 07:29:33;;;;;;;4.90;3.10;;;;;;;;;;110221;1248;33586;-36
2022/08/12 07:32:04;;;;;;;3.80;2.80;;;;;;;;;;110199;1248;33785;-36
2022/08/12 07:34:36;;;;;;;5.10;3.20;;;;;;;;;;110183;1256;33362;-37
2022/08/12 07:37:06;;;;;;;4.70;2.80;;;;;;;;;;110184;1248;34047;-36
2022/08/12 07:39:37;;;;;;;6.80;3.50;;;;;;;;;;110191;1255;34823;-36
2022/08/12 07:42:09;;;;;;;5.40;3.40;;;;;;;;;;110186;1255;33963;-36
2022/08/12 07:44:39;;;;;;;5.70;3.30;;;;;;;;;;110197;1256;33823;-36
2022/08/12 07:47:09;;;;;;;6.70;3.30;;;;;;;;;;110194;1256;33567;-36
2022/08/12 07:49:40;;;;;;;5.60;3.30;;;;;;;;;;110217;1248;33812;-36
2022/08/12 07:52:10;;;;;;;6.60;3.30;;;;;;;;;;110182;1248;33760;-36
2022/08/12 07:54:41;;;;;;;6.40;3.40;;;;;;;;;;110205;1255;32500;-36
2022/08/12 07:57:13;;;;;;;7.50;3.80;;;;;;;;;;110238;1255;33256;-36
2022/08/12 07:59:43;;;;;;;7.10;4.00;;;;;;;;;;110251;1256;33787;-36
2022/08/12 08:02:14;;;;;;;6.80;4.00;;;;;;;;;;110193;1254;34480;-36
2022/08/12 08:04:56;;;;;;;6.10;4.00;;;;;;;;;;110219;1256;35544;-37
2022/08/12 08:07:29;;;;;;;5.80;3.70;;;;;;;;;;110195;1257;34354;-36
2022/08/12 08:10:02;;;;;;;7.00;3.90;;;;;;;;;;110207;1255;35645;-36
2022/08/12 08:15:21;;;;;;;5.90;4.00;;;;;;;;;;110227;1251;34975;-36
2022/08/12 08:18:01;;;;;;;6.60;3.70;;;;;;;;;;110219;1255;35286;-36
2022/08/12 08:20:34;;;;;;;6.50;3.50;;;;;;;;;;110185;1256;33859;-37
2022/08/12 08:23:10;;;;;;;6.40;3.90;;;;;;;;;;110191;1248;33231;-36
2022/08/12 08:25:41;;;;;;;6.80;3.70;;;;;;;;;;110203;1256;32245;-36
2022/08/12 08:28:15;;;;;;;7.30;3.80;;;;;;;;;;110198;1250;33949;-36
2022/08/12 08:30:51;;;;;;;8.30;4.20;;;;;;;;;;110349;1254;35328;-38
2022/08/12 08:33:22;;;;;;;6.90;4.00;;;;;;;;;;110192;1248;33961;-36
2022/08/12 08:35:53;;;;;;;7.40;4.60;;;;;;;;;;110141;1251;35525;-35
2022/08/12 08:38:24;;;;;;;7.30;4.80;;;;;;;;;;110187;1254;33598;-36
2022/08/12 08:43:42;;;;;;;8.80;4.20;;;;;;;;;;110293;1256;34001;-38
2022/08/12 08:46:13;;;;;;;6.50;3.90;;;;;;;;;;110289;1248;34285;-36
2022/08/12 08:48:43;;;;;;;6.20;3.70;;;;;;;;;;110318;1255;33521;-35
2022/08/12 08:51:14;;;;;;;6.70;3.90;;;;;;;;;;110298;1248;33816;-38
2022/08/12 08:53:46;;;;;;;;;;;;;;;;;;110251;1248;33270;-37
2022/08/12 08:56:16;;;;;;;7.10;4.20;;;;;;;;;;110317;1249;33096;-37
2022/08/12 08:58:47;;;;;;;7.20;4.20;;;;;;;;;;110257;1248;34208;-35
2022/08/12 09:01:21;;;;;;;6.50;4.40;;;;;;;;;;110251;1248;34360;-40
2022/08/12 09:03:50;;;;;;;;;;;;;;;;;;110198;1255;33437;-36
2022/08/12 09:06:22;;;;;;;5.90;4.10;;;;;;;;;;110231;1254;34276;-36
2022/08/12 09:08:52;;;;;;;9.70;5.20;;;;;;;;;;110224;1250;34146;-34
2022/08/12 09:14:11;;;;;;;5.90;4.30;;;;;;;;;;110270;1251;33455;-34
2022/08/12 09:16:41;;;;;;;6.40;4.20;;;;;;;;;;110253;1252;35408;-34
2022/08/12 09:19:13;;;;;;;9.20;4.60;;;;;;;;;;110280;1247;33311;-34
2022/08/12 09:21:46;;;;;;;7.20;4.40;;;;;;;;;;110297;1257;34630;-34
2022/08/12 09:24:19;;;;;;;8.00;5.00;;;;;;;;;;110318;1255;33993;-35
2022/08/12 09:26:49;;;;;;;10.10;4.60;;;;;;;;;;110289;1251;33335;-36
2022/08/12 09:29:20;;;;;;;7.60;4.60;;;;;;;;;;110305;1250;33586;-36
2022/08/12 09:31:51;;;;;;;8.70;4.70;;;;;;;;;;109899;1248;34172;-36
2022/08/12 09:34:24;;;;;;;7.40;4.10;;;;;;;;;;110254;1249;34363;-35
2022/08/12 09:36:55;;;;;;;8.60;4.70;;;;;;;;;;110285;1254;33547;-37
2022/08/12 09:39:29;;;;;;;7.50;4.30;;;;;;;;;;110346;1251;33493;-36
2022/08/12 09:47:36;;;;;;;8.30;4.60;;;;;;;;;;110335;1256;33336;-34
2022/08/12 09:50:09;;;;;;;8.50;5.00;;;;;;;;;;110325;1256;34162;-35
2022/08/12 09:52:40;;;;;;;9.40;4.60;;;;;;;;;;110352;1257;35690;-37
2022/08/12 09:55:11;;;;;;;7.00;4.60;;;;;;;;;;110322;1250;33914;-36
2022/08/12 09:57:41;;;;;;;12.50;4.80;;;;;;;;;;110336;1248;33858;-36
2022/08/12 10:00:14;;;;;;;9.70;5.20;;;;;;;;;;110309;1255;33956;-35
2022/08/12 10:03:02;;;;;;;8.20;4.80;;;;;;;;;;110342;1256;34060;-39
2022/08/12 10:05:38;;;;;;;6.60;4.40;;;;;;;;;;110301;1254;33955;-34
2022/08/12 10:08:12;;;;;;;7.80;4.00;;;;;;;;;;110326;1251;34247;-36
2022/08/12 10:16:16;;;;;;;7.60;4.50;;;;;;;;;;110276;1254;34135;-34
2022/08/12 10:18:48;;;;;;;8.00;4.80;;;;;;;;;;110302;1255;34025;-37
2022/08/12 10:21:20;;;;;;;6.80;4.40;;;;;;;;;;110310;1248;34209;-42
2022/08/12 10:23:53;;;;;;;6.00;4.70;;;;;;;;;;110300;1248;33666;-35
2022/08/12 10:32:05;;;;;;;7.30;5.00;;;;;;;;;;110316;1248;33755;-34
2022/08/12 10:34:36;;;;;;;7.60;5.40;;;;;;;;;;110316;1251;33769;-36
2022/08/12 10:37:09;;;;;;;7.30;4.80;;;;;;;;;;110302;1250;33792;-37
2022/08/12 10:39:39;;;;;;;;;;;;;;;;;;110296;1248;34189;-37
2022/08/12 10:45:02;;;;;;;6.00;4.80;;;;;;;;;;110356;1250;34745;-36
2022/08/12 10:47:35;;;;;;;8.30;4.60;;;;;;;;;;110400;1251;33956;-39
2022/08/12 10:50:08;;;;;;;6.90;4.50;;;;;;;;;;110446;1247;33668;-37
2022/08/12 10:52:40;;;;;;;5.10;4.50;;;;;;;;;;110368;1256;33305;-33
2022/08/12 10:55:11;;;;;;;7.30;4.90;;;;;;;;;;110360;1248;33534;-37
2022/08/12 10:57:41;;;;;;;6.70;4.30;;;;;;;;;;110403;1254;34171;-36
2022/08/12 11:00:14;;;;;;;6.20;4.80;;;;;;;;;;110382;1248;34009;-39
2022/08/12 11:02:53;;;;;;;7.60;4.80;;;;;;;;;;110375;1248;35659;-35
2022/08/12 11:05:26;;;;;;;7.80;4.70;;;;;;;;;;110376;1255;34034;-34
2022/08/12 11:07:57;;;;;;;8.10;5.00;;;;;;;;;;110356;1256;34026;-35
2022/08/12 11:10:27;;;;;;;5.60;4.60;;;;;;;;;;110394;1255;35549;-38
2022/08/12 11:12:59;;;;;;;6.10;4.70;;;;;;;;;;110355;1247;33416;-39
2022/08/12 11:15:29;;;;;;;7.70;4.90;;;;;;;;;;110380;1256;34058;-37
2022/08/12 11:17:59;;;;;;;6.40;4.90;;;;;;;;;;110394;1253;33404;-36
2022/08/12 11:20:30;;;;;;;7.50;4.80;;;;;;;;;;110358;1256;34491;-36
2022/08/12 11:23:01;;;;;;;8.20;5.00;;;;;;;;;;110395;1256;35567;-35
2022/08/12 11:25:32;;;;;;;7.40;5.60;;;;;;;;;;110432;1248;35681;-35
2022/08/12 11:28:03;;;;;;;6.20;5.20;;;;;;;;;;110347;1247;33755;-34
2022/08/12 11:30:33;;;;;;;6.70;4.80;;;;;;;;;;110428;1253;34085;-34
2022/08/12 11:33:04;;;;;;;6.90;5.30;;;;;;;;;;110423;1248;33708;-35
2022/08/12 11:35:36;;;;;;;7.40;5.60;;;;;;;;;;110438;1248;35218;-36
2022/08/12 11:38:06;;;;;;;6.70;5.50;;;;;;;;;;110409;1248;33543;-40
2022/08/12 11:40:37;;;;;;;8.30;5.80;;;;;;;;;;110333;1248;33275;-40
2022/08/12 11:43:08;;;;;;;7.90;5.50;;;;;;;;;;110357;1255;35796;-35
2022/08/12 11:45:38;;;;;;;6.20;5.10;;;;;;;;;;110376;1256;35565;-35
2022/08/12 11:48:08;;;;;;;7.30;5.40;;;;;;;;;;110363;1250;33758;-35
2022/08/12 11:50:39;;;;;;;8.90;5.30;;;;;;;;;;110380;1248;33763;-35
2022/08/12 11:53:10;;;;;;;7.70;5.20;;;;;;;;;;110366;1256;33934;-37
2022/08/12 11:55:40;;;;;;;6.10;5.40;;;;;;;;;;110387;1256;33243;-35
2022/08/12 11:58:11;;;;;;;6.80;5.60;;;;;;;;;;110402;1254;34999;-36
2022/08/12 12:00:41;;;;;;;6.00;5.00;;;;;;;;;;110339;1254;35826;-36
2022/08/12 12:03:12;;;;;;;6.30;5.70;;;;;;;;;;110354;1248;33936;-35
2022/08/12 12:05:42;;;;;;;7.20;6.00;;;;;;;;;;110360;1256;34642;-35
2022/08/12 12:08:20;;;;;;;6.10;5.50;;;;;;;;;;110344;1256;34029;-36
2022/08/12 12:10:52;;;;;;;6.40;5.20;;;;;;;;;;110259;1248;35849;-36
2022/08/12 12:13:23;;;;;;;6.20;5.60;;;;;;;;;;110376;1253;35437;-36
2022/08/12 12:15:53;;;;;;;7.20;6.20;;;;;;;;;;110390;1251;33505;-37
2022/08/12 12:18:26;;;;;;;6.50;5.90;;;;;;;;;;110404;1248;34108;-36
2022/08/12 12:21:00;;;;;;;7.60;5.90;;;;;;;;;;110400;1255;35775;-36
2022/08/12 12:23:33;;;;;;;6.20;5.50;;;;;;;;;;110357;1254;35364;-37
2022/08/12 12:26:02;;;;;;;;;;;;;;;;;;110406;1247;33341;-36
2022/08/12 12:28:33;;;;;;;6.70;6.00;;;;;;;;;;110229;1256;34193;-36
2022/08/12 12:31:03;;;;;;;6.20;5.60;;;;;;;;;;110446;1256;35473;-36
2022/08/12 12:33:34;;;;;;;6.80;5.60;;;;;;;;;;110405;1256;34562;-36
2022/08/12 12:36:06;;;;;;;6.70;6.00;;;;;;;;;;110406;1248;33675;-36
2022/08/12 12:38:37;;;;;;;7.30;6.40;;;;;;;;;;110417;1248;34099;-36
2022/08/12 12:41:07;;;;;;;6.90;5.60;;;;;;;;;;110374;1256;34089;-36
2022/08/12 12:43:38;;;;;;;8.30;6.40;;;;;;;;;;110406;1247;34034;-37
2022/08/12 12:46:08;;;;;;;8.30;6.20;;;;;;;;;;110374;1250;34095;-37
2022/08/12 12:48:38;;;;;;;7.70;6.30;;;;;;;;;;110392;1256;35385;-37
2022/08/12 12:51:17;;;;;;;7.20;6.50;;;;;;;;;;110381;1246;34092;-38
2022/08/12 12:53:50;;;;;;;8.90;6.70;;;;;;;;;;110359;1247;33997;-37
2022/08/12 12:56:21;;;;;;;;;;;;;;;;;;110379;1251;34398;-37
2022/08/12 12:58:53;;;;;;;7.20;6.50;;;;;;;;;;110368;1256;32915;-37
2022/08/12 13:01:24;;;;;;;8.00;7.20;;;;;;;;;;110268;1251;33902;-35
2022/08/12 13:03:56;;;;;;;9.60;6.90;;;;;;;;;;110375;1254;35775;-36
2022/08/12 13:06:28;;;;;;;8.20;7.30;;;;;;;;;;110388;1256;34446;-36
2022/08/12 13:09:02;;;;;;;8.40;7.10;;;;;;;;;;110367;1246;33904;-37
2022/08/12 13:11:33;;;;;;;8.50;7.60;;;;;;;;;;110353;1255;34076;-35
2022/08/12 13:14:04;;;;;;;8.00;7.20;;;;;;;;;;110403;1248;34129;-41
2022/08/12 13:16:34;;;;;;;9.20;7.70;;;;;;;;;;110413;1255;33826;-37
2022/08/12 13:19:04;;;;;;;9.80;7.90;;;;;;;;;;110401;1254;33979;-37
2022/08/12 13:22:14;;;;;;;9.00;7.50;;;;;;;;;;110355;1247;33715;-34
2022/08/12 13:24:25;;;;;;;8.40;7.60;;;;;;;;;;110298;1254;32657;-35
2022/08/12 13:26:56;;;;;;;8.80;7.50;;;;;;;;;;110315;1256;34571;-39
2022/08/12 13:29:29;;;;;;;7.80;6.90;;;;;;;;;;110342;1248;33349;-37
2022/08/12 13:32:01;;;;;;;8.40;7.60;;;;;;;;;;110294;1256;34777;-37
2022/08/12 13:34:32;;;;;;;8.30;7.50;;;;;;;;;;110315;1247;32834;-36
2022/08/12 13:37:03;;;;;;;8.50;7.60;;;;;;;;;;110300;1247;34102;-36
2022/08/12 13:39:33;;;;;;;8.00;7.10;;;;;;;;;;110255;1248;33834;-39
2022/08/12 13:42:07;;;;;;;8.70;7.80;;;;;;;;;;110280;1247;34559;-38
2022/08/12 13:44:38;;;;;;;7.60;6.90;;;;;;;;;;110276;1248;34038;-36
2022/08/12 13:47:09;;;;;;;7.50;6.80;;;;;;;;;;110282;1255;33249;-36
2022/08/12 13:49:39;;;;;;;8.20;7.40;;;;;;;;;;110300;1248;34187;-36
2022/08/12 13:52:09;;;;;;;8.60;7.30;;;;;;;;;;110273;1248;33839;-36
2022/08/12 13:54:40;;;;;;;8.10;7.30;;;;;;;;;;110287;1248;33541;-36
2022/08/12 13:57:12;;;;;;;8.40;7.20;;;;;;;;;;110274;1256;34082;-35
2022/08/12 13:59:43;;;;;;;8.70;7.50;;;;;;;;;;110333;1246;33563;-35
2022/08/12 14:02:13;;;;;;;8.60;7.80;;;;;;;;;;110288;1255;33516;-36
2022/08/12 14:04:44;;;;;;;8.50;7.60;;;;;;;;;;110327;1250;33831;-35
2022/08/12 14:07:14;;;;;;;8.10;7.30;;;;;;;;;;110336;1246;33757;-35
2022/08/12 14:12:43;;;;;;;9.50;7.50;;;;;;;;;;110031;1254;34341;-36
2022/08/12 14:15:16;;;;;;;8.30;7.50;;;;;;;;;;110296;1248;33970;-35
2022/08/12 14:17:48;;;;;;;7.90;7.00;;;;;;;;;;110276;1256;33399;-35
2022/08/12 14:20:22;;;;;;;8.00;7.20;;;;;;;;;;110295;1246;34073;-35
2022/08/12 14:22:55;;;;;;;9.10;8.10;;;;;;;;;;110292;1248;33142;-35
2022/08/12 14:25:25;;;;;;;;;;;;;;;;;;110292;1247;33659;-35
2022/08/12 14:28:02;;;;;;;9.00;7.60;;;;;;;;;;110340;1248;33417;-36
2022/08/12 14:30:33;;;;;;;9.00;7.60;;;;;;;;;;110315;1248;33962;-35
2022/08/12 14:33:04;;;;;;;8.70;7.80;;;;;;;;;;110313;1254;35488;-36
2022/08/12 14:35:35;;;;;;;8.80;7.90;;;;;;;;;;110273;1246;33704;-35
2022/08/12 14:38:20;;;;;;;8.10;7.30;;;;;;;;;;110295;1253;33324;-35
2022/08/12 14:40:52;;;;;;;9.50;7.90;;;;;;;;;;110331;1254;34386;-36
2022/08/12 14:43:22;;;;;;;8.20;7.40;;;;;;;;;;110332;1254;33962;-35
2022/08/12 14:45:53;;;;;;;8.40;7.60;;;;;;;;;;110257;1248;34122;-35
2022/08/12 14:48:23;;;;;;;7.90;7.10;;;;;;;;;;110322;1248;33853;-36
2022/08/12 14:50:57;;;;;;;8.60;7.70;;;;;;;;;;110323;1246;32650;-36
2022/08/12 14:53:30;;;;;;;9.40;7.60;;;;;;;;;;110318;1248;33007;-35
2022/08/12 14:56:01;;;;;;;9.30;7.80;;;;;;;;;;110273;1248;34142;-35
2022/08/12 14:58:32;;;;;;;8.80;7.90;;;;;;;;;;110346;1255;32361;-35
2022/08/12 15:03:52;;;;;;;8.60;7.70;;;;;;;;;;110263;1248;33965;-36
2022/08/12 15:06:25;;;;;;;8.40;7.60;;;;;;;;;;110283;1248;34505;-35
2022/08/12 15:08:56;;;;;;;8.80;7.50;;;;;;;;;;110289;1248;33609;-35
2022/08/12 15:11:27;;;;;;;8.20;6.90;;;;;;;;;;110311;1255;35644;-36
2022/08/12 15:13:58;;;;;;;7.90;7.20;;;;;;;;;;110213;1256;34583;-35
2022/08/12 15:16:29;;;;;;;7.90;7.10;;;;;;;;;;110317;1246;33698;-35
2022/08/12 15:19:00;;;;;;;9.30;7.50;;;;;;;;;;110305;1253;35550;-35
2022/08/12 15:21:31;;;;;;;9.30;8.30;;;;;;;;;;110287;1254;33875;-36
2022/08/12 15:24:02;;;;;;;8.60;7.40;;;;;;;;;;110289;1254;33337;-36
2022/08/12 15:26:35;;;;;;;8.20;7.40;;;;;;;;;;110292;1246;33927;-35
2022/08/12 15:29:06;;;;;;;8.60;7.70;;;;;;;;;;110283;1254;34414;-35
2022/08/12 15:31:37;;;;;;;8.60;7.80;;;;;;;;;;110301;1248;33938;-35
2022/08/12 15:34:10;;;;;;;8.60;7.80;;;;;;;;;;110316;1248;34116;-35
2022/08/12 15:36:41;;;;;;;7.60;6.80;;;;;;;;;;110310;1246;33955;-35
2022/08/12 15:39:12;;;;;;;8.40;7.60;;;;;;;;;;110312;1249;33296;-35
2022/08/12 15:41:43;;;;;;;9.10;7.70;;;;;;;;;;110333;1254;33349;-35
2022/08/12 15:44:14;;;;;;;8.80;7.90;;;;;;;;;;110320;1254;33493;-35
2022/08/12 15:46:46;;;;;;;8.70;7.40;;;;;;;;;;110333;1255;33981;-35
2022/08/12 15:49:17;;;;;;;7.80;7.00;;;;;;;;;;110325;1255;35629;-35
2022/08/12 15:51:50;;;;;;;8.70;7.80;;;;;;;;;;110318;1254;33308;-35
2022/08/12 15:54:22;;;;;;;8.10;7.30;;;;;;;;;;110333;1249;33707;-35
2022/08/12 15:56:53;;;;;;;8.50;7.70;;;;;;;;;;110315;1248;33783;-35
2022/08/12 15:59:25;;;;;;;8.50;7.70;;;;;;;;;;110318;1256;34237;-36
2022/08/12 16:01:57;;;;;;;8.60;7.80;;;;;;;;;;110311;1249;34028;-36
2022/08/12 16:04:30;;;;;;;8.60;7.70;;;;;;;;;;110305;1250;34164;-35
2022/08/12 16:07:01;;;;;;;8.60;7.80;;;;;;;;;;110310;1254;33958;-36
2022/08/12 16:09:32;;;;;;;9.00;8.00;;;;;;;;;;110313;1255;34120;-36
2022/08/12 16:12:02;;;;;;;9.70;8.80;;;;;;;;;;110347;1248;33480;-35
2022/08/12 16:14:33;;;;;;;8.70;7.70;;;;;;;;;;110343;1250;33488;-36
2022/08/12 16:17:04;;;;;;;9.00;8.10;;;;;;;;;;110363;1248;34462;-35
2022/08/12 16:19:36;;;;;;;9.30;8.20;;;;;;;;;;110301;1254;33734;-35
2022/08/12 16:22:09;;;;;;;9.30;8.30;;;;;;;;;;110325;1254;33461;-36
2022/08/12 16:24:42;;;;;;;9.70;8.70;;;;;;;;;;110300;1248;34456;-36
2022/08/12 16:27:13;;;;;;;9.40;8.50;;;;;;;;;;110288;1255;35524;-35
2022/08/12 16:29:44;;;;;;;9.30;8.40;;;;;;;;;;110348;1246;34401;-36
2022/08/12 16:32:15;;;;;;;9.30;8.40;;;;;;;;;;110295;1254;32230;-36
2022/08/12 16:34:47;;;;;;;9.60;8.60;;;;;;;;;;110323;1248;35476;-35
2022/08/12 16:37:17;;;;;;;9.60;8.60;;;;;;;;;;110331;1248;33956;-35
2022/08/12 16:39:51;;;;;;;8.90;8.00;;;;;;;;;;110313;1248;34060;-36
2022/08/12 16:42:23;;;;;;;9.50;8.10;;;;;;;;;;110409;1248;33770;-34
2022/08/12 16:44:53;;;;;;;8.80;7.70;;;;;;;;;;110351;1250;33527;-35
2022/08/12 16:47:24;;;;;;;9.50;8.10;;;;;;;;;;110290;1249;33018;-35
2022/08/12 16:49:56;;;;;;;8.60;7.70;;;;;;;;;;110311;1250;33029;-33
2022/08/12 16:52:30;;;;;;;9.00;8.00;;;;;;;;;;110386;1248;33485;-34
2022/08/12 16:55:04;;;;;;;8.50;7.70;;;;;;;;;;110377;1248;33985;-32
2022/08/12 16:57:35;;;;;;;9.60;8.30;;;;;;;;;;110428;1247;35330;-34
2022/08/12 17:00:15;;;;;;;8.50;7.70;;;;;;;;;;110357;1248;34889;-33
2022/08/12 17:02:47;;;;;;;8.70;7.90;;;;;;;;;;110344;1255;33955;-35